.
WxDataArchive / Data Records for 2014-04-04
2014-04-03 April 2014 2014-04-05

Data Records for Friday, 04 April 2014

Time	Temp	Chill	HIndex	Humid	Dewpt	 Wind 	HiWind	WindDir	Rain 	Barom
-----	----	-----	------	-----	-----	------	------	-------	-----	-----
00:00	35.8	35.8	35.8	96	34.8	3	14	112	0.00	29.736 
00:05	35.8	35.8	35.8	96	34.8	2	7	112	0.00	29.736 
00:10	35.8	35.8	35.8	96	34.8	3	10	90	0.00	29.736 
00:15	35.9	35.9	35.9	96	34.9	3	10	90	0.00	29.754 
00:20	35.9	32.6	35.9	96	34.9	4	10	112	0.00	29.754 
00:25	35.9	35.9	35.9	96	34.9	3	10	112	0.00	29.754 
00:30	35.9	31.7	35.9	96	34.9	5	11	112	0.00	29.734 
00:35	35.9	31.7	35.9	96	34.9	5	11	90	0.00	29.734 
00:40	35.9	35.9	35.9	96	34.9	3	7	90	0.00	29.734 
00:45	35.9	35.9	35.9	96	34.9	3	11	90	0.00	29.749 
00:50	35.9	35.9	35.9	96	34.9	2	5	90	0.00	29.749 
00:55	36.0	36.0	36.0	96	35.0	2	7	90	0.00	29.749 
01:00	36.0	36.0	36.0	96	35.0	3	7	90	0.00	29.762 
01:05	36.0	36.0	36.0	96	35.0	1	5	90	0.00	29.762 
01:10	36.0	36.0	36.0	96	35.0	2	4	90	0.00	29.762 
01:15	36.0	36.0	36.0	96	35.0	2	4	90	0.00	29.763 
01:20	36.2	36.2	36.2	96	35.2	2	6	90	0.00	29.763 
01:25	36.2	36.2	36.2	96	35.2	1	3	90	0.00	29.763 
01:30	36.3	36.3	36.3	96	35.3	2	5	90	0.00	29.754 
01:35	36.3	36.3	36.3	96	35.3	3	8	90	0.00	29.754 
01:40	36.3	36.3	36.3	96	35.3	3	9	112	0.00	29.754 
01:45	36.3	36.3	36.3	96	35.3	3	11	90	0.00	29.746 
01:50	36.3	36.3	36.3	96	35.3	3	9	90	0.00	29.746 
01:55	36.3	36.3	36.3	96	35.3	3	10	90	0.00	29.746 
02:00	36.5	36.5	36.5	96	35.5	2	6	90	0.00	29.752 
02:05	36.5	36.5	36.5	96	35.5	2	4	90	0.00	29.752 
02:10	36.5	36.5	36.5	96	35.5	1	4	90	0.00	29.752 
02:15	36.5	36.5	36.5	96	35.5	2	5	90	0.00	29.748 
02:20	36.5	36.5	36.5	96	35.5	2	4	90	0.00	29.748 
02:25	36.5	33.3	36.5	96	35.5	4	6	90	0.00	29.748 
02:30	36.5	33.3	36.5	96	35.5	4	9	90	0.00	29.729 
02:35	36.5	33.3	36.5	96	35.5	4	7	90	0.00	29.729 
02:40	36.5	36.5	36.5	96	35.5	3	7	90	0.00	29.729 
02:45	36.5	36.5	36.5	96	35.5	2	5	90	0.00	29.717 
02:50	36.5	33.3	36.5	96	35.5	4	7	90	0.00	29.717 
02:55	36.3	33.0	36.3	96	35.3	4	7	90	0.00	29.717 
03:00	36.3	36.3	36.3	96	35.3	1	6	90	0.00	29.721 
03:05	36.3	36.3	36.3	96	35.3	1	4	90	0.00	29.721 
03:10	36.3	36.3	36.3	96	35.3	2	4	90	0.00	29.721 
03:15	36.3	36.3	36.3	96	35.3	2	5	90	0.00	29.720 
03:20	36.2	36.2	36.2	96	35.2	2	6	90	0.00	29.720 
03:25	36.2	36.2	36.2	96	35.2	1	6	90	0.00	29.720 
03:30	36.2	36.2	36.2	96	35.2	0	2	90	0.00	29.730 
03:35	36.3	36.3	36.3	96	35.3	1	5	90	0.00	29.730 
03:40	36.2	36.2	36.2	96	35.2	0	3	90	0.00	29.730 
03:45	36.2	36.2	36.2	96	35.2	0	2	90	0.00	29.725 
03:50	36.2	36.2	36.2	96	35.2	1	4	90	0.00	29.725 
03:55	36.2	36.2	36.2	96	35.2	2	4	90	0.00	29.725 
04:00	36.3	36.3	36.3	96	35.3	1	6	90	0.00	29.712 
04:05	36.3	36.3	36.3	96	35.3	1	5	90	0.00	29.712 
04:10	36.3	36.3	36.3	96	35.3	1	6	90	0.00	29.712 
04:15	36.2	36.2	36.2	96	35.2	2	4	90	0.00	29.705 
04:20	36.2	32.9	36.2	96	35.2	4	7	90	0.00	29.705 
04:25	36.2	36.2	36.2	96	35.2	2	6	90	0.00	29.705 
04:30	36.2	36.2	36.2	96	35.2	2	5	90	0.00	29.685 
04:35	36.2	36.2	36.2	96	35.2	1	3	90	0.00	29.685 
04:40	36.2	36.2	36.2	96	35.2	2	6	90	0.00	29.685 
04:45	36.2	36.2	36.2	96	35.2	2	5	90	0.00	29.668 
04:50	36.0	36.0	36.0	96	35.0	3	6	90	0.00	29.668 
04:55	36.0	36.0	36.0	96	35.0	3	9	90	0.00	29.668 
05:00	36.0	32.7	36.0	96	35.0	4	8	112	0.00	29.643 
05:05	36.0	36.0	36.0	96	35.0	3	7	90	0.00	29.643 
05:10	36.0	36.0	36.0	96	35.0	3	5	90	0.00	29.643 
05:15	36.0	36.0	36.0	96	35.0	3	8	90	0.00	29.623 
05:20	36.0	36.0	36.0	97	35.2	3	7	90	0.00	29.623 
05:25	36.0	31.8	36.0	97	35.2	5	10	90	0.00	29.623 
05:30	36.0	32.7	36.0	97	35.2	4	9	90	0.00	29.606 
05:35	36.2	36.2	36.2	97	35.4	3	6	90	0.00	29.606 
05:40	36.2	32.9	36.2	97	35.4	4	9	90	0.00	29.606 
05:45	36.0	31.8	36.0	97	35.2	5	11	90	0.00	29.583 
05:50	36.0	31.8	36.0	97	35.2	5	9	90	0.00	29.583 
05:55	36.2	32.9	36.2	97	35.4	4	9	90	0.00	29.583 
06:00	36.2	32.9	36.2	97	35.4	4	10	90	0.00	29.570 
06:05	36.2	32.9	36.2	97	35.4	4	10	90	0.00	29.570 
06:10	36.2	36.2	36.2	97	35.4	3	7	90	0.00	29.570 
06:15	36.2	36.2	36.2	97	35.4	3	6	90	0.00	29.557 
06:20	36.2	36.2	36.2	97	35.4	3	5	68	0.00	29.557 
06:25	36.3	36.3	36.3	97	35.5	2	5	90	0.00	29.557 
06:30	36.3	36.3	36.3	97	35.5	3	9	90	0.00	29.559 
06:35	36.5	36.5	36.5	97	35.7	3	6	90	0.00	29.559 
06:40	36.5	36.5	36.5	97	35.7	3	6	90	0.00	29.559 
06:45	36.5	36.5	36.5	97	35.7	3	7	90	0.00	29.556 
06:50	36.5	36.5	36.5	97	35.7	2	5	90	0.00	29.556 
06:55	36.6	36.6	36.6	97	35.8	3	5	90	0.00	29.556 
07:00	36.6	36.6	36.6	97	35.8	3	6	90	0.00	29.551 
07:05	36.8	36.8	36.8	97	36.0	3	6	90	0.00	29.551 
07:10	36.9	33.7	36.9	97	36.1	4	7	90	0.00	29.551 
07:15	36.9	30.8	36.9	97	36.1	8	13	90	0.00	29.500 
07:20	36.9	31.4	36.9	97	36.1	7	13	90	0.00	29.500 
07:25	37.0	37.0	37.0	97	36.2	1	6	90	0.00	29.500 
07:30	37.2	37.2	37.2	97	36.4	1	5	112	0.00	29.516 
07:35	37.5	37.5	37.5	97	36.7	1	6	112	0.00	29.516 
07:40	37.8	37.8	37.8	97	37.0	0	2	112	0.00	29.516 
07:45	37.9	37.9	37.9	97	37.1	0	1	112	0.00	29.540 
07:50	38.2	38.2	38.2	97	37.4	0	2	112	0.00	29.540 
07:55	38.5	38.5	38.5	97	37.7	1	5	112	0.00	29.540 
08:00	38.8	38.8	38.8	97	38.0	2	6	112	0.00	29.524 
08:05	39.1	39.1	39.1	97	38.3	0	3	90	0.00	29.524 
08:10	39.3	39.3	39.3	97	38.5	0	2	90	0.00	29.524 
08:15	39.5	39.5	39.5	97	38.7	0	1	90	0.00	29.539 
08:20	39.6	39.6	39.6	97	38.8	0	0	---	0.00	29.539 
08:25	39.8	39.8	39.8	97	39.0	0	2	90	0.00	29.539 
08:30	39.8	39.8	39.8	97	39.0	0	2	90	0.00	29.527 
08:35	39.9	39.9	39.9	97	39.1	0	1	90	0.00	29.527 
08:40	39.9	39.9	39.9	97	39.1	0	1	90	0.00	29.527 
08:45	39.8	39.8	39.8	97	39.0	0	0	---	0.00	29.507 
08:50	39.5	39.5	39.5	97	38.7	0	2	90	0.00	29.507 
08:55	39.3	39.3	39.3	97	38.5	0	1	90	0.00	29.507 
09:00	39.2	39.2	39.2	97	38.4	0	1	90	0.00	29.521 
09:05	39.2	39.2	39.2	97	38.4	0	3	90	0.00	29.521 
09:10	39.1	39.1	39.1	97	38.3	0	2	90	0.00	29.521 
09:15	39.1	39.1	39.1	97	38.3	0	3	90	0.00	29.519 
09:20	39.1	39.1	39.1	97	38.3	0	1	90	0.00	29.519 
09:25	39.2	39.2	39.2	97	38.4	0	1	90	0.00	29.519 
09:30	39.2	39.2	39.2	97	38.4	0	1	90	0.00	29.504 
09:35	39.3	39.3	39.3	97	38.5	0	1	90	0.00	29.504 
09:40	39.5	39.5	39.5	97	38.7	0	1	90	0.00	29.504 
09:45	39.6	39.6	39.6	97	38.8	0	1	90	0.00	29.509 
09:50	39.8	39.8	39.8	97	39.0	0	0	---	0.00	29.509 
09:55	39.9	39.9	39.9	97	39.1	0	1	90	0.00	29.509 
10:00	40.1	40.1	40.1	97	39.3	0	0	---	0.00	29.507 
10:05	40.1	40.1	40.1	97	39.3	0	0	---	0.00	29.507 
10:10	40.2	40.2	40.2	97	39.4	0	0	---	0.00	29.507 
10:15	40.3	40.3	40.3	97	39.5	0	0	---	0.00	29.499 
10:20	40.5	40.5	40.5	97	39.7	0	0	---	0.00	29.499 
10:25	40.6	40.6	40.6	97	39.8	0	1	90	0.00	29.499 
10:30	40.8	40.8	40.8	97	40.0	0	1	90	0.00	29.493 
10:35	40.9	40.9	40.9	97	40.1	0	0	---	0.00	29.493 
10:40	41.1	41.1	41.1	97	40.3	0	0	---	0.00	29.493 
10:45	41.2	41.2	41.2	97	40.4	0	0	---	0.00	29.492 
10:50	41.5	41.5	41.5	97	40.7	0	0	---	0.00	29.492 
10:55	41.8	41.8	41.8	97	41.0	0	1	90	0.00	29.492 
11:00	41.9	41.9	41.9	97	41.1	0	1	90	0.00	29.489 
11:05	42.1	42.1	42.1	97	41.3	0	0	---	0.00	29.489 
11:10	42.3	42.3	42.3	97	41.5	0	0	---	0.00	29.489 
11:15	42.6	42.6	42.6	98	42.1	0	0	---	0.00	29.484 
11:20	42.8	42.8	42.8	98	42.3	0	0	---	0.00	29.484 
11:25	43.1	43.1	43.1	98	42.6	0	0	---	0.00	29.484 
11:30	43.5	43.5	43.5	98	43.0	0	0	---	0.00	29.485 
11:35	43.8	43.8	43.8	98	43.3	0	1	90	0.00	29.485 
11:40	43.9	43.9	43.9	98	43.4	0	0	---	0.00	29.485 
11:45	44.2	44.2	44.2	98	43.7	0	2	90	0.01	29.486 
11:50	45.1	45.1	45.1	98	44.6	1	5	270	0.00	29.486 
11:55	46.7	46.7	46.7	98	46.2	1	5	270	0.00	29.486 
12:00	48.6	48.6	48.6	98	48.1	2	9	270	0.01	29.484 
12:05	49.5	49.5	49.5	99	49.2	3	9	248	0.00	29.484 
12:10	49.4	48.2	49.4	99	49.1	4	8	270	0.00	29.484 
12:15	49.2	47.9	49.2	99	48.9	4	8	270	0.00	29.490 
12:20	48.9	47.6	48.9	98	48.4	4	10	270	0.00	29.490 
12:25	48.8	48.8	48.8	98	48.3	3	7	270	0.00	29.490 
12:30	48.5	47.1	48.5	98	48.0	4	7	270	0.00	29.496 
12:35	48.0	46.6	48.0	98	47.5	4	10	270	0.00	29.496 
12:40	47.7	46.2	47.7	98	47.2	4	9	270	0.00	29.496 
12:45	47.7	47.7	47.7	98	47.2	2	9	248	0.00	29.501 
12:50	47.4	47.4	47.4	98	46.9	3	7	270	0.00	29.501 
12:55	47.3	45.0	47.3	98	46.8	5	14	248	0.00	29.501 
13:00	46.7	45.1	46.7	98	46.2	4	13	248	0.00	29.506 
13:05	46.2	44.5	46.2	98	45.7	4	11	248	0.00	29.506 
13:10	46.0	44.2	46.0	98	45.5	4	9	248	0.00	29.506 
13:15	45.7	43.2	45.7	97	44.9	5	13	248	0.00	29.517 
13:20	45.2	42.6	45.2	97	44.4	5	12	270	0.00	29.517 
13:25	44.8	42.1	44.8	97	44.0	5	12	248	0.00	29.517 
13:30	44.5	42.5	44.5	97	43.7	4	7	270	0.00	29.526 
13:35	44.1	41.3	44.1	96	43.0	5	11	270	0.00	29.526 
13:40	43.6	40.7	43.6	96	42.5	5	11	248	0.00	29.526 
13:45	43.6	40.7	43.6	96	42.5	5	12	248	0.00	29.548 
13:50	43.8	43.8	43.8	95	42.5	3	7	248	0.00	29.548 
13:55	43.8	41.7	43.8	95	42.5	4	11	248	0.00	29.548 
14:00	43.8	41.7	43.8	94	42.2	4	11	270	0.00	29.554 
14:05	43.5	39.9	43.5	92	41.3	6	13	270	0.00	29.554 
14:10	43.5	40.6	43.5	91	41.0	5	12	270	0.00	29.554 
14:15	43.5	41.4	43.5	90	40.8	4	7	248	0.00	29.555 
14:20	43.3	41.1	43.3	89	40.3	4	12	248	0.00	29.555 
14:25	43.2	40.2	43.2	88	39.9	5	12	248	0.00	29.555 
14:30	43.1	40.1	43.1	86	39.2	5	16	248	0.00	29.568 
14:35	43.1	40.1	43.1	85	38.9	5	13	270	0.00	29.568 
14:40	42.9	39.9	42.9	84	38.4	5	15	248	0.00	29.568 
14:45	42.8	39.8	42.8	84	38.3	5	15	248	0.00	29.584 
14:50	42.5	39.4	42.5	84	38.0	5	13	248	0.00	29.584 
14:55	42.3	38.5	42.3	83	37.5	6	17	270	0.00	29.584 
15:00	42.1	38.3	42.1	83	37.3	6	15	270	0.00	29.595 
15:05	41.6	37.1	41.6	81	36.2	7	15	270	0.00	29.595 
15:10	41.3	38.0	41.3	82	36.2	5	10	270	0.00	29.595 
15:15	41.1	37.8	41.1	83	36.3	5	12	248	0.00	29.603 
15:20	40.8	37.4	40.8	83	36.0	5	12	270	0.00	29.603 
15:25	40.6	37.2	40.6	83	35.8	5	15	270	0.00	29.603 
15:30	40.5	37.1	40.5	84	36.1	5	12	270	0.00	29.616 
15:35	40.2	36.7	40.2	84	35.8	5	14	270	0.00	29.616 
15:40	40.3	37.7	40.3	85	36.2	4	12	248	0.00	29.616 
15:45	40.3	37.7	40.3	84	35.9	4	9	248	0.00	29.617 
15:50	40.5	37.9	40.5	83	35.8	4	10	248	0.00	29.617 
15:55	40.5	37.1	40.5	81	35.1	5	13	248	0.00	29.617 
16:00	40.3	36.8	40.3	81	34.9	5	12	248	0.00	29.624 
16:05	40.3	36.8	40.3	81	34.9	5	14	270	0.00	29.624 
16:10	40.3	37.7	40.3	81	34.9	4	9	248	0.00	29.624 
16:15	40.5	37.1	40.5	81	35.1	5	11	270	0.00	29.629 
16:20	40.5	37.9	40.5	80	34.8	4	10	270	0.00	29.629 
16:25	40.5	37.9	40.5	80	34.8	4	9	270	0.00	29.629 
16:30	40.8	40.8	40.8	79	34.8	3	9	248	0.00	29.632 
16:35	40.8	37.4	40.8	79	34.8	5	12	248	0.00	29.632 
16:40	40.6	38.0	40.6	79	34.6	4	12	248	0.00	29.632 
16:45	40.6	38.0	40.6	80	34.9	4	7	248	0.00	29.636 
16:50	40.5	37.1	40.5	80	34.8	5	15	248	0.00	29.636 
16:55	40.5	37.9	40.5	80	34.8	4	13	270	0.00	29.636 
17:00	40.5	37.9	40.5	80	34.8	4	9	248	0.00	29.646 
17:05	40.5	40.5	40.5	80	34.8	3	6	248	0.00	29.646 
17:10	40.5	37.9	40.5	78	34.2	4	11	248	0.00	29.646 
17:15	40.3	36.1	40.3	78	34.0	6	13	270	0.00	29.660 
17:20	40.1	35.3	40.1	78	33.8	7	13	270	0.00	29.660 
17:25	40.1	35.3	40.1	78	33.8	7	13	270	0.00	29.660 
17:30	40.1	35.9	40.1	77	33.5	6	13	270	0.00	29.666 
17:35	40.1	35.9	40.1	77	33.5	6	15	248	0.00	29.666 
17:40	40.1	36.6	40.1	77	33.5	5	11	270	0.00	29.666 
17:45	39.9	36.4	39.9	77	33.3	5	12	270	0.00	29.686 
17:50	39.8	35.5	39.8	75	32.5	6	12	270	0.00	29.686 
17:55	39.8	34.9	39.8	72	31.5	7	14	270	0.00	29.686 
18:00	39.8	36.2	39.8	72	31.5	5	11	270	0.00	29.697 
18:05	39.6	35.3	39.6	73	31.7	6	14	270	0.00	29.697 
18:10	39.5	35.9	39.5	73	31.6	5	11	248	0.00	29.697 
18:15	39.3	35.7	39.3	73	31.4	5	11	248	0.00	29.710 
18:20	39.2	36.4	39.2	73	31.3	4	11	270	0.00	29.710 
18:25	39.2	35.5	39.2	73	31.3	5	11	248	0.00	29.710 
18:30	39.2	36.4	39.2	73	31.3	4	10	248	0.00	29.714 
18:35	38.9	34.4	38.9	73	31.0	6	16	248	0.00	29.714 
18:40	38.8	35.1	38.8	74	31.2	5	10	270	0.00	29.714 
18:45	38.6	34.8	38.6	74	31.0	5	14	248	0.00	29.725 
18:50	38.5	34.0	38.5	73	30.6	6	14	270	0.00	29.725 
18:55	38.5	34.0	38.5	73	30.6	6	13	270	0.00	29.725 
19:00	38.5	35.6	38.5	73	30.6	4	10	270	0.00	29.731 
19:05	38.5	38.5	38.5	73	30.6	3	9	270	0.00	29.731 
19:10	38.5	35.6	38.5	72	30.3	4	8	270	0.00	29.731 
19:15	38.6	35.7	38.6	72	30.4	4	12	270	0.00	29.742 
19:20	38.5	35.6	38.5	72	30.3	4	12	270	0.00	29.742 
19:25	38.5	34.0	38.5	71	29.9	6	12	248	0.00	29.742 
19:30	38.5	34.7	38.5	71	29.9	5	13	270	0.00	29.754 
19:35	38.5	35.6	38.5	72	30.3	4	11	270	0.00	29.754 
19:40	38.3	34.5	38.3	71	29.7	5	10	270	0.00	29.754 
19:45	38.3	34.5	38.3	71	29.7	5	10	270	0.00	29.761 
19:50	38.3	38.3	38.3	72	30.1	3	6	248	0.00	29.761 
19:55	38.2	34.4	38.2	71	29.6	5	9	270	0.00	29.761 
20:00	38.2	34.4	38.2	71	29.6	5	10	270	0.00	29.764 
20:05	38.2	34.4	38.2	71	29.6	5	11	270	0.00	29.764 
20:10	38.0	35.0	38.0	71	29.4	4	14	248	0.00	29.764 
20:15	38.0	35.0	38.0	72	29.8	4	10	248	0.00	29.775 
20:20	38.0	34.1	38.0	71	29.4	5	10	270	0.00	29.775 
20:25	38.0	35.0	38.0	71	29.4	4	10	270	0.00	29.775 
20:30	37.9	34.9	37.9	71	29.4	4	7	270	0.00	29.779 
20:35	37.9	37.9	37.9	72	29.7	2	5	248	0.00	29.779 
20:40	37.9	34.9	37.9	71	29.4	4	7	248	0.00	29.779 
20:45	37.9	34.9	37.9	71	29.4	4	11	248	0.00	29.787 
20:50	37.9	34.0	37.9	70	29.0	5	12	270	0.00	29.787 
20:55	37.8	37.8	37.8	70	28.9	3	10	248	0.00	29.787 
21:00	37.8	34.8	37.8	69	28.6	4	7	248	0.00	29.800 
21:05	37.8	37.8	37.8	69	28.6	3	6	270	0.00	29.800 
21:10	37.6	34.5	37.6	69	28.4	4	10	270	0.00	29.800 
21:15	37.6	33.7	37.6	69	28.4	5	10	270	0.00	29.807 
21:20	37.5	37.5	37.5	69	28.3	3	8	248	0.00	29.807 
21:25	37.5	37.5	37.5	69	28.3	3	6	248	0.00	29.807 
21:30	37.5	34.4	37.5	69	28.3	4	7	248	0.00	29.812 
21:35	37.5	37.5	37.5	69	28.3	3	7	248	0.00	29.812 
21:40	37.3	37.3	37.3	69	28.1	3	9	248	0.00	29.812 
21:45	37.3	37.3	37.3	69	28.1	3	8	248	0.00	29.822 
21:50	37.3	37.3	37.3	69	28.1	3	7	248	0.00	29.822 
21:55	37.2	37.2	37.2	70	28.3	3	5	248	0.00	29.822 
22:00	37.2	37.2	37.2	70	28.3	3	9	270	0.00	29.830 
22:05	37.2	37.2	37.2	70	28.3	3	8	270	0.00	29.830 
22:10	37.2	37.2	37.2	70	28.3	3	7	248	0.00	29.830 
22:15	37.0	37.0	37.0	70	28.1	3	9	270	0.00	29.835 
22:20	37.0	37.0	37.0	70	28.1	3	9	248	0.00	29.835 
22:25	37.0	37.0	37.0	70	28.1	3	6	248	0.00	29.835 
22:30	36.9	36.9	36.9	71	28.4	2	6	270	0.00	29.839 
22:35	36.9	36.9	36.9	72	28.7	3	6	248	0.00	29.839 
22:40	36.8	36.8	36.8	72	28.6	3	6	248	0.00	29.839 
22:45	36.8	36.8	36.8	72	28.6	3	7	270	0.00	29.849 
22:50	36.6	36.6	36.6	72	28.4	3	9	248	0.00	29.849 
22:55	36.6	36.6	36.6	72	28.4	3	7	248	0.00	29.849 
23:00	36.6	36.6	36.6	72	28.4	3	9	248	0.00	29.852 
23:05	36.6	36.6	36.6	72	28.4	2	5	248	0.00	29.852 
23:10	36.6	36.6	36.6	72	28.4	2	9	248	0.00	29.852 
23:15	36.6	36.6	36.6	72	28.4	3	9	248	0.00	29.850 
23:20	36.6	36.6	36.6	72	28.4	3	6	248	0.00	29.850 
23:25	36.6	36.6	36.6	72	28.4	3	6	270	0.00	29.850 
23:30	36.5	36.5	36.5	72	28.3	3	7	248	0.00	29.859 
23:35	36.5	36.5	36.5	73	28.7	3	7	270	0.00	29.859 
23:40	36.5	36.5	36.5	73	28.7	3	5	270	0.00	29.859 
23:45	36.5	36.5	36.5	73	28.7	3	6	248	0.00	29.864 
23:50	36.3	36.3	36.3	74	28.8	3	8	248	0.00	29.864 
23:55	36.3	36.3	36.3	74	28.8	2	5	292	0.00	29.864 

CoCoRaHS
IN-AL-39
A2 Web Hosting
Creative Commons License
GoDaddy
search engine by freefind advanced

loaded 2018-11-14 03:32:55 • last modified 2010-11-18 10:43:29
Privacy PolicyDisclaimer
• wx.awcolley.com is powered by PmWiki v.2002016 •
• all content (unless otherwise noted) © 2018 A W Colley